Forside
METAR-TAF:

METAR-TAF

Lufthavne :

Offutt Air Force Base

Omaha, Nebraska, USA

Breddekreds: 41-07N, længdekreds: 095-54W, højde: 319 m

Aktuelle vejr

Denne rapport blev lavet for 38 minutter siden, kl. 22:56 UTC
Vind 11 kt fra sydøst
Temperatur 4°C
Fugtighed 52%
Tryk 1025 hPa
Sigt: 16.1 km
skyfri

METAR: KOFF 142256Z AUTO 14011KT 10SM CLR 04/M05 A3028 RMK AO2 SLP270 T00431055 $

Tid: 17:34 (23:34 UTC)

Vejrudsigter

Denne rapport blev lavet for 5 timer og 25 minutter siden, kl. 18:09 UTC
Foreløbig gælder fra 14 på 18 UTC til 15 på 24 UTC
Vind 10 kt fra syd med vindstød på up til 15 kt
Sigt 10 km eller mere
skyfri
ændring
fra 14 på 21 UTC til 14 på 22 UTC
Vind 6 kt fra vest
Sigt: 1518 m
skyfri

TAF: KOFF 141809Z 1418/1524 18010G15KT 9999 SKC QNH3027INS BECMG 1421/1422 17009KT 9999 SKC QNH2991INS WND 26006KT AFT 1518 TX07/1421Z TNM03/1512Z

Vejrobservationer og prognoser fra mere end 4000 lufthavne (METAR og TAF).

De gule og røde prikker repræsenterer de meteorologiske stationer.

Flyt musen over at se navnet på stationen.

Så klik over at se vejr observationer og prognoser.

At skifte det kort: Klik på de grønne knapper med et sort kors for at zoome ind; på den grønne knap med en bindestreg for at zoome ud; eller på de grønne pile for tilstødende kort.


METAR-TAF: